Time;durP1;ratioP1;P1;durP2;ratioP2;P2;SDS_P1;SDS_P2;PMS_P1;PMS_P2;Temp;Humidity;BMP_temperature;BMP_pressure;BME280_temperature;BME280_humidity;BME280_pressure;Samples;Min_cycle;Max_cycle;Signal;HPM_P1;HPM_P2
2023/01/26 00:02:09;;;;;;;15.17;9.80;;;;;;;3.67;100.00;100245.50;5111089;28;20191;-59
2023/01/26 00:05:27;;;;;;;13.10;9.33;;;;;;;3.72;100.00;100260.13;5111213;28;20240;-60
2023/01/26 00:08:15;;;;;;;13.83;9.43;;;;;;;3.79;100.00;100237.94;5110767;28;20201;-56
2023/01/26 00:11:09;;;;;;;14.87;9.87;;;;;;;3.76;100.00;100235.31;5109301;28;20227;-55
2023/01/26 00:14:09;;;;;;;17.50;9.20;;;;;;;3.86;100.00;100229.44;5110671;28;20194;-60
2023/01/26 00:29:32;;;;;;;17.30;9.10;;;;;;;3.55;100.00;100193.19;5110411;28;20199;-55
2023/01/26 00:32:23;;;;;;;14.27;9.50;;;;;;;3.60;100.00;100195.81;5110462;28;20233;-55
2023/01/26 00:35:25;;;;;;;;;;;;;;;;;;;;;
2023/01/26 00:38:45;;;;;;;14.97;9.77;;;;;;;3.60;100.00;100200.94;5095183;28;20594;-55
2023/01/26 00:45:02;;;;;;;14.53;9.17;;;;;;;3.55;100.00;100193.19;5110086;28;20195;-60
2023/01/26 00:48:16;;;;;;;16.03;9.57;;;;;;;3.57;100.00;100201.78;5108274;28;20202;-59
2023/01/26 00:50:58;;;;;;;12.50;9.23;;;;;;;3.53;100.00;100200.00;5110196;28;20190;-59
2023/01/26 00:54:06;;;;;;;14.77;9.93;;;;;;;3.59;100.00;100199.22;5109736;28;20694;-59
2023/01/26 00:57:08;;;;;;;16.27;9.47;;;;;;;3.58;100.00;100197.50;5109364;28;20306;-59
2023/01/26 01:09:20;;;;;;;;;;;;;;;;;;;;;
2023/01/26 01:22:25;;;;;;;10.77;7.87;;;;;;;3.44;100.00;100176.81;5125489;28;20198;-56
2023/01/26 01:31:32;;;;;;;9.97;7.83;;;;;;;3.46;100.00;100158.88;5122807;28;20206;-59
2023/01/26 01:34:38;;;;;;;11.70;7.70;;;;;;;3.57;100.00;100164.97;5127110;28;20301;-55
2023/01/26 01:37:32;;;;;;;11.47;8.00;;;;;;;3.54;100.00;100164.94;5124381;28;20297;-59
2023/01/26 01:46:25;;;;;;;12.03;8.20;;;;;;;3.50;100.00;100156.34;5127520;28;20193;-60
2023/01/26 01:58:40;;;;;;;12.57;8.13;;;;;;;3.46;100.00;100144.34;5124129;28;20209;-55
2023/01/26 02:01:54;;;;;;;12.07;8.63;;;;;;;3.52;100.00;100140.97;5126844;28;20249;-55
2023/01/26 02:05:06;;;;;;;12.23;8.60;;;;;;;3.56;100.00;100112.78;5126722;28;20201;-55
2023/01/26 02:10:57;;;;;;;10.40;8.40;;;;;;;3.58;100.00;100121.34;5124483;28;20238;-55
2023/01/26 02:13:48;;;;;;;13.63;8.23;;;;;;;3.45;100.00;100124.66;5122860;28;20588;-60
2023/01/26 02:19:45;;;;;;;11.07;8.47;;;;;;;3.37;100.00;100113.47;5117934;28;20282;-56
2023/01/26 02:29:18;;;;;;;11.80;7.43;;;;;;;3.35;100.00;100112.59;5111568;28;20195;-56
2023/01/26 02:32:22;;;;;;;12.13;7.87;;;;;;;3.36;100.00;100109.19;5109172;28;20238;-61
2023/01/26 02:35:26;;;;;;;11.17;7.73;;;;;;;3.49;100.00;100111.03;5108108;28;20709;-56
2023/01/26 02:38:15;;;;;;;9.73;7.47;;;;;;;3.49;100.00;100111.03;5111046;28;20285;-56
2023/01/26 02:55:21;;;;;;;11.23;7.20;;;;;;;3.60;100.00;100091.44;5109934;28;20226;-55
2023/01/26 02:57:29;;;;;;;8.87;7.50;;;;;;;3.62;100.00;100097.41;5111176;28;20198;-54
2023/01/26 03:00:41;;;;;;;11.40;8.27;;;;;;;3.57;100.00;100080.28;5110793;28;20585;-54
2023/01/26 03:07:08;;;;;;;10.10;7.20;;;;;;;3.51;100.00;100085.34;5107919;28;20207;-55
2023/01/26 03:10:07;;;;;;;10.07;7.33;;;;;;;3.49;100.00;100085.34;5112062;28;20739;-56
2023/01/26 03:28:21;;;;;;;12.10;8.07;;;;;;;3.58;100.00;100059.75;5072022;28;20199;-56
2023/01/26 03:31:19;;;;;;;12.37;8.73;;;;;;;3.48;100.00;100060.53;5070824;28;20202;-56
2023/01/26 03:34:19;;;;;;;15.63;9.00;;;;;;;3.54;100.00;100052.88;5070982;28;20850;-56
2023/01/26 03:37:25;;;;;;;14.57;8.93;;;;;;;3.48;100.00;100046.84;5070251;28;20239;-61
2023/01/26 03:58:54;;;;;;;15.47;10.07;;;;;;;3.25;100.00;100009.03;5051005;28;20579;-57
2023/01/26 04:10:18;;;;;;;16.23;9.70;;;;;;;3.13;100.00;100000.38;5050241;28;20259;-60
2023/01/26 04:21:37;;;;;;;10.97;7.47;;;;;;;3.28;100.00;100003.91;5049894;28;20715;-60
2023/01/26 04:24:08;;;;;;;11.60;8.10;;;;;;;3.27;100.00;100004.75;5050042;28;20195;-60
2023/01/26 04:26:52;;;;;;;15.23;8.87;;;;;;;3.36;100.00;99998.00;5050403;28;20262;-59
2023/01/26 04:29:36;;;;;;;11.83;8.70;;;;;;;3.25;100.00;99991.06;5050026;28;20193;-59
2023/01/26 04:32:12;;;;;;;15.40;8.73;;;;;;;3.23;100.00;99984.19;5049589;28;20197;-55
2023/01/26 04:34:57;;;;;;;10.00;7.80;;;;;;;3.24;100.00;99983.34;5050003;28;20319;-55
2023/01/26 04:37:31;;;;;;;13.67;8.97;;;;;;;3.01;100.00;99954.09;5060287;28;20278;-56
2023/01/26 04:40:00;;;;;;;12.77;8.83;;;;;;;3.23;100.00;99959.41;5067475;28;20192;-58
2023/01/26 04:42:35;;;;;;;14.63;9.20;;;;;;;3.27;100.00;99973.97;5067736;28;20208;-59
2023/01/26 04:45:07;;;;;;;12.13;8.77;;;;;;;3.33;100.00;99973.16;5065363;28;20192;-59
2023/01/26 04:47:37;;;;;;;11.57;8.83;;;;;;;3.37;100.00;99964.66;5066096;28;20198;-56
2023/01/26 04:50:12;;;;;;;13.47;9.37;;;;;;;3.29;100.00;99949.19;5065407;28;20206;-55
2023/01/26 04:52:50;;;;;;;15.97;10.20;;;;;;;3.40;100.00;99974.06;5065241;28;20192;-55
2023/01/26 04:55:24;;;;;;;14.13;9.10;;;;;;;3.38;100.00;99968.94;5068079;28;20264;-55
2023/01/26 04:58:35;;;;;;;15.93;9.20;;;;;;;3.34;100.00;99976.59;5067872;28;20586;-55
2023/01/26 05:01:17;;;;;;;12.93;8.50;;;;;;;3.31;100.00;99977.41;5068625;28;20260;-54
2023/01/26 05:04:11;;;;;;;;;;;;;;;;;;;;;
2023/01/26 05:10:15;;;;;;;15.90;9.60;;;;;;;3.32;100.00;99984.28;5047376;28;20669;-60
2023/01/26 05:13:23;;;;;;;16.50;10.57;;;;;;;3.36;100.00;99990.28;5049427;28;20197;-60
2023/01/26 05:16:18;;;;;;;16.60;10.70;;;;;;;3.37;100.00;99981.75;5048889;28;20704;-60
2023/01/26 05:22:08;;;;;;;19.90;11.67;;;;;;;3.37;100.00;99976.63;5048404;28;20201;-60
2023/01/26 05:25:16;;;;;;;19.73;9.73;;;;;;;3.35;100.00;99971.47;5049439;28;20196;-60
2023/01/26 05:28:14;;;;;;;18.47;10.33;;;;;;;3.31;100.00;99971.44;5049427;28;20197;-59
2023/01/26 05:30:51;;;;;;;17.70;10.97;;;;;;;3.27;100.00;99965.44;5049232;28;20684;-59
2023/01/26 05:33:54;;;;;;;13.63;8.83;;;;;;;3.03;100.00;99957.53;5049351;28;20200;-55
2023/01/26 05:37:03;;;;;;;19.77;10.80;;;;;;;3.05;100.00;99953.28;5047896;28;20681;-55
2023/01/26 05:39:34;;;;;;;17.70;10.00;;;;;;;3.14;100.00;99943.97;5052659;28;20222;-60
2023/01/26 05:42:10;;;;;;;25.57;11.33;;;;;;;3.18;100.00;99945.69;5067607;28;20224;-59
2023/01/26 05:44:51;;;;;;;15.10;11.03;;;;;;;3.24;100.00;99944.88;5067809;28;20227;-60
2023/01/26 05:47:26;;;;;;;16.83;11.30;;;;;;;3.28;100.00;99944.91;5068509;28;20216;-60
2023/01/26 05:50:02;;;;;;;14.57;10.43;;;;;;;3.23;100.00;99951.72;5063079;28;20274;-59
2023/01/26 05:52:48;;;;;;;16.73;10.53;;;;;;;3.19;100.00;99947.41;5064842;28;20600;-60
2023/01/26 05:55:29;;;;;;;15.93;10.80;;;;;;;3.20;100.00;99949.13;5056068;28;20228;-56
2023/01/26 05:58:15;;;;;;;12.80;9.67;;;;;;;3.26;100.00;99943.19;5048292;28;20312;-56
2023/01/26 06:01:24;;;;;;;20.03;11.80;;;;;;;3.25;100.00;99942.34;5049889;28;20197;-60
2023/01/26 06:07:51;;;;;;;18.93;11.87;;;;;;;3.27;100.00;99944.91;5041327;28;20216;-55
2023/01/26 06:11:04;;;;;;;18.63;11.40;;;;;;;3.10;100.00;99946.47;5052558;28;20218;-55
2023/01/26 06:24:08;;;;;;;35.43;19.43;;;;;;;2.98;100.00;99930.97;5112705;28;20198;-56
2023/01/26 06:30:18;;;;;;;33.97;16.97;;;;;;;3.09;100.00;99930.22;5107776;28;20690;-55
2023/01/26 06:33:01;;;;;;;26.70;15.80;;;;;;;3.19;100.00;99937.13;5101362;28;20194;-55
2023/01/26 06:39:16;;;;;;;25.17;14.23;;;;;;;2.80;100.00;99941.94;5108893;28;20203;-60
2023/01/26 06:45:30;;;;;;;22.20;13.77;;;;;;;2.97;100.00;99934.38;4147210;27;28655010;-56
2023/01/26 06:58:19;;;;;;;23.87;14.63;;;;;;;3.11;100.00;99913.16;5144884;27;20213;-60
2023/01/26 07:01:28;;;;;;;21.40;14.73;;;;;;;3.17;100.00;99904.63;5148066;27;20683;-60
2023/01/26 07:06:55;;;;;;;26.30;14.83;;;;;;;3.32;100.00;99907.31;5136818;27;20614;-55
2023/01/26 07:09:35;;;;;;;26.20;14.60;;;;;;;3.27;100.00;99914.97;5147840;27;20621;-55
2023/01/26 07:12:05;;;;;;;20.63;13.33;;;;;;;3.37;100.00;99904.78;5147129;27;20204;-59
2023/01/26 07:37:15;;;;;;;31.27;15.37;;;;;;;3.21;100.00;99867.91;5147704;27;20276;-59
2023/01/26 07:43:12;;;;;;;30.63;14.83;;;;;;;3.12;100.00;99868.72;5141430;27;20204;-60
2023/01/26 07:46:22;;;;;;;22.87;13.03;;;;;;;3.22;100.00;99869.63;5146763;27;20582;-60
2023/01/26 07:49:29;;;;;;;23.00;14.10;;;;;;;3.31;100.00;99869.66;5147158;27;20221;-61
2023/01/26 07:52:25;;;;;;;21.80;15.07;;;;;;;3.24;100.00;99871.34;5145904;27;20193;-60
2023/01/26 07:58:16;;;;;;;17.03;10.70;;;;;;;3.29;100.00;99873.94;5129525;27;20257;-56
2023/01/26 08:01:06;;;;;;;13.43;9.77;;;;;;;3.24;100.00;99873.06;5128859;27;20194;-55
2023/01/26 08:03:44;;;;;;;13.10;8.83;;;;;;;3.18;100.00;99868.72;5130633;27;20270;-56
2023/01/26 08:06:25;;;;;;;12.87;9.10;;;;;;;3.25;100.00;99867.09;5131385;27;20202;-55
2023/01/26 08:09:14;;;;;;;14.37;8.83;;;;;;;3.27;100.00;99866.22;5130586;27;20198;-55
2023/01/26 08:12:06;;;;;;;15.10;9.60;;;;;;;2.97;100.00;99826.69;5131933;27;20196;-55
2023/01/26 08:14:59;;;;;;;16.00;10.33;;;;;;;3.24;100.00;99870.50;5130137;27;20218;-58
2023/01/26 08:17:40;;;;;;;19.93;14.17;;;;;;;3.17;100.00;99849.06;5128955;27;20206;-60
2023/01/26 08:20:23;;;;;;;32.10;16.57;;;;;;;3.20;100.00;99863.63;5131550;27;20247;-60
2023/01/26 08:23:16;;;;;;;22.20;13.50;;;;;;;3.24;100.00;99860.22;5132825;27;20225;-57
2023/01/26 08:31:45;;;;;;;20.03;11.20;;;;;;;3.14;100.00;99853.34;5120887;27;20206;-55
2023/01/26 08:37:21;;;;;;;13.70;9.07;;;;;;;3.16;100.00;99857.59;5130138;27;20243;-53
2023/01/26 08:40:07;;;;;;;13.07;9.33;;;;;;;3.10;100.00;99849.03;5129204;27;20186;-59
2023/01/26 08:42:39;;;;;;;14.07;9.27;;;;;;;3.08;100.00;99845.59;5132561;27;20205;-55
2023/01/26 08:45:28;;;;;;;19.43;9.70;;;;;;;3.13;100.00;99831.94;5125341;27;20234;-54
2023/01/26 08:48:25;;;;;;;17.27;10.10;;;;;;;2.92;100.00;99801.91;5116174;27;20202;-55
2023/01/26 08:54:24;;;;;;;16.43;9.90;;;;;;;2.93;100.00;99834.38;5108352;28;20290;-60
2023/01/26 08:57:13;;;;;;;17.33;9.73;;;;;;;3.01;100.00;99825.88;5111448;28;20201;-59
2023/01/26 09:00:22;;;;;;;16.50;10.00;;;;;;;3.01;100.00;99824.19;5112141;28;20195;-60
2023/01/26 09:03:24;;;;;;;30.37;16.73;;;;;;;3.09;100.00;99819.94;5111347;28;20198;-59
2023/01/26 09:06:06;;;;;;;18.20;10.37;;;;;;;3.19;100.00;99823.44;5111594;28;20266;-59
2023/01/26 09:09:04;;;;;;;17.30;10.70;;;;;;;3.09;100.00;99821.66;5110474;28;20195;-60
2023/01/26 09:22:01;;;;;;;22.47;10.00;;;;;;;2.89;100.00;99806.16;5111412;28;20301;-60
2023/01/26 09:31:20;;;;;;;14.87;10.03;;;;;;;3.01;100.00;99780.59;5109701;28;20709;-59
2023/01/26 09:33:51;;;;;;;17.37;11.73;;;;;;;2.92;100.00;99790.81;5110416;28;20234;-54
2023/01/26 09:36:53;;;;;;;17.83;10.30;;;;;;;2.91;100.00;99787.38;5110827;28;20227;-56
2023/01/26 09:39:34;;;;;;;15.67;9.57;;;;;;;2.98;100.00;99772.00;5109576;28;20287;-55
2023/01/26 09:42:43;;;;;;;18.87;10.83;;;;;;;2.86;100.00;99771.09;5114122;28;20267;-58
2023/01/26 09:45:52;;;;;;;46.10;26.60;;;;;;;2.96;100.00;99758.31;5028340;28;20320;-59
2023/01/26 09:48:41;;;;;;;22.67;14.90;;;;;;;3.14;100.00;99754.16;5069576;28;20223;-59
2023/01/26 09:51:22;;;;;;;22.20;12.60;;;;;;;3.17;100.00;99754.16;5067023;28;20285;-59
2023/01/26 09:54:32;;;;;;;18.50;12.87;;;;;;;3.23;100.00;99737.97;5069258;28;20277;-56
2023/01/26 09:57:28;;;;;;;21.70;13.10;;;;;;;3.33;100.00;99739.72;5067398;28;20302;-58
2023/01/26 10:00:33;;;;;;;21.60;13.40;;;;;;;3.30;100.00;99734.56;5070014;28;20219;-59
2023/01/26 10:03:31;;;;;;;16.67;11.60;;;;;;;3.36;100.00;99726.03;5067784;28;20224;-59
2023/01/26 10:06:24;;;;;;;22.07;12.83;;;;;;;3.34;100.00;99718.34;5069263;28;20306;-59
2023/01/26 10:16:09;;;;;;;19.67;12.80;;;;;;;3.19;100.00;99710.56;5086158;28;20199;-59
2023/01/26 10:22:49;;;;;;;18.30;12.73;;;;;;;3.14;100.00;99700.31;5086476;28;20716;-59
2023/01/26 10:28:44;;;;;;;67.63;34.40;;;;;;;2.84;100.00;99698.44;5082674;28;20218;-56
2023/01/26 10:31:22;;;;;;;58.40;32.83;;;;;;;2.84;100.00;99693.31;5086287;28;20746;-56
2023/01/26 10:34:11;;;;;;;27.17;17.07;;;;;;;2.86;100.00;99680.50;5086497;28;20187;-56
2023/01/26 10:43:59;;;;;;;30.43;18.97;;;;;;;2.99;100.00;99648.97;5083620;28;20218;-59
2023/01/26 11:23:04;;;;;;;76.50;31.97;;;;;;;3.34;100.00;99590.06;5065922;28;20200;-57
2023/01/26 11:26:04;;;;;;;254.03;91.83;;;;;;;3.38;100.00;99586.66;5069318;28;20220;-58
2023/01/26 11:29:16;;;;;;;56.97;27.70;;;;;;;3.52;100.00;99597.78;5068933;28;20192;-55
2023/01/26 11:45:31;;;;;;;21.53;14.10;;;;;;;3.48;100.00;99518.25;5104834;27;20709;-59
2023/01/26 11:48:29;;;;;;;91.17;35.23;;;;;;;3.58;100.00;99525.06;5132490;27;20308;-59
2023/01/26 11:51:32;;;;;;;53.53;28.13;;;;;;;3.59;100.00;99524.22;5133251;27;20192;-58
2023/01/26 12:08:03;;;;;;;20.37;13.60;;;;;;;3.52;100.00;99507.97;5119177;27;20241;-56
2023/01/26 12:10:53;;;;;;;23.00;14.37;;;;;;;3.45;100.00;99497.72;5130689;27;20197;-60
2023/01/26 12:13:47;;;;;;;16.77;11.27;;;;;;;3.53;100.00;99494.28;5131812;27;20198;-59
2023/01/26 12:16:40;;;;;;;15.63;11.23;;;;;;;3.55;100.00;99490.00;5130984;27;21072;-59
2023/01/26 12:22:42;;;;;;;16.30;11.20;;;;;;;3.63;100.00;99493.41;5116624;27;20358;-59
2023/01/26 12:25:35;;;;;;;17.93;12.03;;;;;;;3.57;100.00;99472.91;5131832;27;20209;-56
2023/01/26 12:34:18;;;;;;;24.53;14.73;;;;;;;3.65;100.00;99478.00;5129782;27;20233;-59
2023/01/26 12:37:09;;;;;;;22.33;14.00;;;;;;;3.55;100.00;99476.31;5132509;27;20185;-59
2023/01/26 12:39:59;;;;;;;22.07;13.20;;;;;;;3.60;100.00;99484.88;5129817;27;20195;-60
2023/01/26 12:45:53;;;;;;;24.07;15.27;;;;;;;3.60;100.00;99472.03;5129338;27;20282;-56
2023/01/26 12:48:49;;;;;;;26.23;14.97;;;;;;;3.67;100.00;99471.16;5132059;27;20202;-57
2023/01/26 12:51:33;;;;;;;22.87;14.90;;;;;;;3.59;100.00;99454.94;5127739;27;20224;-56
2023/01/26 12:54:28;;;;;;;22.43;15.00;;;;;;;3.68;100.00;99461.75;5130113;27;20352;-57
2023/01/26 12:57:14;;;;;;;19.97;13.50;;;;;;;3.67;100.00;99467.75;5130124;27;20193;-56
2023/01/26 13:00:10;;;;;;;34.07;19.80;;;;;;;3.64;100.00;99454.06;5128371;27;20190;-59
2023/01/26 13:02:57;;;;;;;31.63;18.00;;;;;;;3.55;100.00;99453.22;5128304;27;20191;-60
2023/01/26 13:06:06;;;;;;;26.53;16.93;;;;;;;3.57;100.00;99454.09;5129704;27;20225;-59
2023/01/26 13:09:32;;;;;;;34.17;18.87;;;;;;;3.54;100.00;99454.94;5130311;27;20194;-59
2023/01/26 13:12:53;;;;;;;35.00;20.00;;;;;;;3.44;100.00;99444.69;5129231;27;20675;-56
2023/01/26 13:15:40;;;;;;;37.70;21.73;;;;;;;3.49;100.00;99448.97;5130395;27;20670;-57
2023/01/26 13:26:05;;;;;;;23.67;15.37;;;;;;;3.57;100.00;99428.41;5130673;27;20304;-57
2023/01/26 13:42:54;;;;;;;;;;;;;;;;;;;;;
2023/01/26 14:12:54;;;;;;;27.43;16.63;;;;;;;3.50;100.00;99342.88;5122499;28;20216;-59
2023/01/26 14:18:49;;;;;;;25.67;15.60;;;;;;;3.49;100.00;99325.81;5108611;28;20668;-59
2023/01/26 14:22:11;;;;;;;29.20;18.30;;;;;;;3.43;100.00;99325.81;5125253;28;20583;-58
2023/01/26 14:31:30;;;;;;;30.07;17.50;;;;;;;3.43;100.00;99297.59;5102180;28;20207;-56
2023/01/26 14:38:03;;;;;;;36.30;22.03;;;;;;;3.36;100.00;99280.53;5106287;28;20218;-56
2023/01/26 14:44:06;;;;;;;31.37;20.20;;;;;;;3.64;100.00;99288.94;5093185;28;20240;-55
2023/01/26 14:46:52;;;;;;;54.50;29.40;;;;;;;3.68;100.00;99275.25;5123747;28;20198;-56
2023/01/26 14:49:43;;;;;;;34.03;21.70;;;;;;;3.71;100.00;99280.38;5125667;28;20264;-59
2023/01/26 14:52:54;;;;;;;40.10;24.90;;;;;;;3.56;100.00;99276.16;5124418;28;20190;-57
2023/01/26 14:55:49;;;;;;;37.87;24.27;;;;;;;3.58;100.00;99279.59;5125484;28;20220;-56
2023/01/26 14:58:40;;;;;;;58.13;35.03;;;;;;;3.56;100.00;99273.59;5123636;28;20277;-57
2023/01/26 15:01:45;;;;;;;39.63;24.30;;;;;;;3.59;100.00;99276.16;5124764;28;20709;-56
2023/01/26 15:08:14;;;;;;;35.60;22.97;;;;;;;3.64;100.00;99261.56;5109092;28;20311;-59
2023/01/26 15:17:51;;;;;;;36.47;23.20;;;;;;;3.64;100.00;99250.47;5091253;28;20206;-59
2023/01/26 15:21:01;;;;;;;41.23;23.93;;;;;;;3.69;100.00;99235.91;5091944;28;20286;-59
2023/01/26 15:27:09;;;;;;;44.00;25.07;;;;;;;3.52;100.00;99223.16;5093777;28;20217;-60
2023/01/26 15:30:09;;;;;;;47.80;27.50;;;;;;;3.51;100.00;99231.69;5111013;28;20194;-60
2023/01/26 15:33:08;;;;;;;43.40;24.97;;;;;;;3.63;100.00;99223.94;5110711;28;20277;-59
2023/01/26 15:43:19;;;;;;;50.10;27.23;;;;;;;3.22;100.00;99220.72;5110329;28;20303;-58
2023/01/26 15:49:06;;;;;;;43.43;23.77;;;;;;;3.14;100.00;99195.13;5105127;28;20194;-58
2023/01/26 15:51:52;;;;;;;41.63;24.03;;;;;;;3.10;100.00;99179.75;5111945;28;20293;-58
2023/01/26 15:54:23;;;;;;;42.50;22.03;;;;;;;3.13;100.00;99187.44;5110815;28;20218;-56
2023/01/26 15:57:00;;;;;;;38.60;22.33;;;;;;;3.01;100.00;99193.47;5107620;28;20218;-56
2023/01/26 15:59:35;;;;;;;39.67;21.83;;;;;;;3.03;100.00;99196.03;5111035;28;20293;-58
2023/01/26 16:02:17;;;;;;;40.87;22.37;;;;;;;2.89;100.00;99190.94;5106347;28;20214;-57
2023/01/26 16:05:00;;;;;;;36.57;21.20;;;;;;;2.80;100.00;99186.72;5109923;28;20215;-56
2023/01/26 16:07:37;;;;;;;34.83;20.73;;;;;;;2.84;100.00;99190.94;5111386;28;20261;-56
2023/01/26 16:10:12;;;;;;;37.03;20.77;;;;;;;2.83;100.00;99189.25;5107276;28;20223;-55
2023/01/26 16:12:50;;;;;;;42.00;21.67;;;;;;;2.72;100.00;99190.13;5110203;28;20790;-55
2023/01/26 16:15:40;;;;;;;35.70;20.53;;;;;;;2.69;100.00;99185.88;5107017;28;20573;-59
2023/01/26 16:18:12;;;;;;;37.10;21.20;;;;;;;2.70;100.00;99181.63;5109079;28;20601;-60
2023/01/26 16:20:47;;;;;;;38.57;21.53;;;;;;;2.77;100.00;99190.97;5107936;28;20215;-59
2023/01/26 16:23:38;;;;;;;37.70;21.17;;;;;;;2.67;100.00;99172.22;5110058;28;20226;-58
2023/01/26 16:29:36;;;;;;;36.83;20.67;;;;;;;2.70;100.00;99187.59;5109415;28;20229;-59
2023/01/26 16:32:37;;;;;;;44.20;23.37;;;;;;;2.77;100.00;99178.16;5111071;28;20214;-58
2023/01/26 16:38:33;;;;;;;46.73;24.47;;;;;;;2.92;100.00;99171.28;5107640;28;20610;-55
2023/01/26 16:41:04;;;;;;;50.10;26.83;;;;;;;2.88;100.00;99167.03;5108969;28;20762;-55
2023/01/26 16:43:33;;;;;;;39.27;22.97;;;;;;;2.73;100.00;99155.97;5109871;28;20227;-57
2023/01/26 16:46:43;;;;;;;38.33;23.40;;;;;;;2.69;100.00;99157.69;5109539;28;20676;-56
2023/01/26 16:52:55;;;;;;;45.03;24.27;;;;;;;2.66;100.00;99154.28;5100116;28;20230;-55
2023/01/26 16:56:06;;;;;;;43.20;22.77;;;;;;;2.64;100.00;99136.34;5108601;28;20666;-56
2023/01/26 16:59:23;;;;;;;36.13;21.97;;;;;;;2.70;100.00;99140.63;5110270;28;20214;-55
2023/01/26 17:02:23;;;;;;;49.10;27.67;;;;;;;2.67;100.00;99153.44;5109895;28;20268;-55
2023/01/26 17:05:06;;;;;;;82.70;38.60;;;;;;;2.68;100.00;99147.44;5110338;28;20218;-59
2023/01/26 17:10:43;;;;;;;61.53;31.03;;;;;;;2.67;100.00;99146.59;5108895;28;20218;-59
2023/01/26 17:13:36;;;;;;;73.90;37.53;;;;;;;2.70;100.00;99151.72;5110198;28;20717;-58
2023/01/26 17:20:01;;;;;;;56.77;30.87;;;;;;;2.51;100.00;99129.56;5108164;28;20236;-55
2023/01/26 17:26:15;;;;;;;46.90;25.03;;;;;;;2.34;100.00;99119.38;5107172;28;20226;-58
2023/01/26 17:29:12;;;;;;;38.33;23.33;;;;;;;2.44;100.00;99122.75;5108100;28;20233;-55
2023/01/26 17:31:52;;;;;;;33.70;21.30;;;;;;;2.38;100.00;99107.38;5109583;28;20638;-55
2023/01/26 17:34:29;;;;;;;29.17;18.90;;;;;;;2.45;100.00;99116.78;5108439;28;20225;-55
2023/01/26 17:37:00;;;;;;;31.00;18.57;;;;;;;2.45;100.00;99115.06;5109309;28;20283;-55
2023/01/26 17:39:39;;;;;;;54.27;30.40;;;;;;;2.46;100.00;99113.34;5101848;28;20217;-58
2023/01/26 17:42:14;;;;;;;54.90;29.13;;;;;;;2.34;100.00;99109.13;5089583;28;20609;-58
2023/01/26 17:44:56;;;;;;;57.23;29.97;;;;;;;2.44;100.00;99112.50;5092645;28;20266;-58
2023/01/26 17:47:43;;;;;;;60.53;29.50;;;;;;;2.42;100.00;99114.22;5109566;28;20222;-59
2023/01/26 17:50:29;;;;;;;50.10;28.00;;;;;;;2.34;100.00;99093.75;5108384;28;20256;-57
2023/01/26 17:53:09;;;;;;;37.67;21.63;;;;;;;2.44;100.00;99098.00;5109153;28;20224;-58
2023/01/26 17:55:53;;;;;;;33.63;19.47;;;;;;;2.36;100.00;99097.16;5108896;28;20745;-55
2023/01/26 18:12:56;;;;;;;28.87;16.77;;;;;;;2.09;100.00;99044.31;4944087;23;20237;-85
2023/01/26 18:15:37;;;;;;;32.13;18.10;;;;;;;2.19;100.00;99052.81;4890816;29;20244;-83
2023/01/26 18:18:10;;;;;;;30.70;18.33;;;;;;;2.14;100.00;99047.69;4889904;29;20631;-82
2023/01/26 18:20:39;;;;;;;33.17;18.77;;;;;;;2.27;100.00;99063.03;4889861;29;20672;-83
2023/01/26 18:23:18;;;;;;;33.43;17.77;;;;;;;2.28;100.00;99059.63;4889493;29;20277;-79
2023/01/26 18:25:59;;;;;;;31.23;18.73;;;;;;;2.19;100.00;99053.66;4892024;29;20202;-82
2023/01/26 18:28:46;;;;;;;30.13;17.70;;;;;;;2.29;100.00;99053.63;4888613;29;20209;-78
2023/01/26 18:32:03;;;;;;;28.87;16.97;;;;;;;2.28;100.00;99055.34;4891424;29;20230;-86
2023/01/26 18:34:38;;;;;;;29.40;18.03;;;;;;;2.14;100.00;99027.22;4896515;29;20247;-82
2023/01/26 18:37:07;;;;;;;27.40;17.47;;;;;;;2.18;100.00;99041.72;4887403;29;20205;-81
2023/01/26 18:39:35;;;;;;;33.20;19.43;;;;;;;2.23;100.00;99038.31;4886562;29;20203;-83
2023/01/26 18:42:12;;;;;;;43.37;23.73;;;;;;;2.31;100.00;99034.00;4895593;29;20564;-82
2023/01/26 18:44:47;;;;;;;33.00;19.90;;;;;;;2.24;100.00;99022.09;4899934;29;20284;-82
2023/01/26 18:47:20;;;;;;;36.23;20.77;;;;;;;2.30;100.00;99029.75;4902209;29;20238;-82
2023/01/26 18:50:13;;;;;;;30.93;18.73;;;;;;;2.19;100.00;99017.84;4891488;29;20210;-84
2023/01/26 18:52:48;;;;;;;44.40;24.00;;;;;;;2.35;100.00;99016.06;4883365;29;20221;-84
2023/01/26 18:55:58;;;;;;;35.47;21.13;;;;;;;2.04;100.00;98979.47;4889471;29;20295;-83
2023/01/26 18:59:09;;;;;;;34.50;19.17;;;;;;;1.29;100.00;98850.09;4897086;29;20594;-83
2023/01/26 19:01:42;;;;;;;31.60;19.00;;;;;;;2.14;100.00;98983.69;4890296;29;20206;-86
2023/01/26 19:04:14;;;;;;;33.47;19.77;;;;;;;2.43;100.00;99013.47;4894379;29;20697;-86
2023/01/26 19:07:08;;;;;;;30.37;17.97;;;;;;;2.30;100.00;99016.94;4901305;29;20684;-87
2023/01/26 19:10:14;;;;;;;32.77;18.53;;;;;;;2.37;100.00;99023.75;4893191;29;20230;-86
2023/01/26 19:13:15;;;;;;;158.37;49.87;;;;;;;2.34;100.00;99013.53;4892423;29;20222;-85
2023/01/26 19:16:01;;;;;;;196.23;62.77;;;;;;;2.34;100.00;99013.53;4894754;29;20261;-82
2023/01/26 19:19:02;;;;;;;133.57;44.93;;;;;;;2.28;100.00;99014.38;4893503;29;20254;-83
2023/01/26 19:25:02;;;;;;;163.27;51.73;;;;;;;2.34;100.00;98998.16;4891113;29;20234;-86
2023/01/26 19:27:43;;;;;;;108.33;42.20;;;;;;;2.31;100.00;98986.22;4888545;29;20233;-84
2023/01/26 19:30:44;;;;;;;53.13;26.70;;;;;;;2.36;100.00;98974.25;4893102;29;20619;-86
2023/01/26 19:37:01;;;;;;;41.73;24.73;;;;;;;2.26;100.00;98951.25;4887148;29;20270;-83
2023/01/26 19:39:40;;;;;;;40.03;22.87;;;;;;;2.42;100.00;98961.41;4887868;29;20305;-80
2023/01/26 19:42:12;;;;;;;44.40;24.77;;;;;;;2.32;100.00;98933.28;4888503;29;20246;-79
2023/01/26 19:45:06;;;;;;;48.60;26.30;;;;;;;2.42;100.00;98961.41;4889710;29;20258;-82
2023/01/26 19:48:13;;;;;;;46.63;25.13;;;;;;;2.28;100.00;98952.94;4894588;29;20754;-85
2023/01/26 19:50:42;;;;;;;45.30;23.47;;;;;;;2.19;100.00;98938.47;4890889;29;20218;-81
2023/01/26 19:53:53;;;;;;;45.33;25.00;;;;;;;1.93;100.00;98878.00;4887512;29;20282;-83
2023/01/26 19:56:58;;;;;;;49.37;26.23;;;;;;;2.34;100.00;98935.00;4886051;29;20278;-84
2023/01/26 20:00:13;;;;;;;45.87;25.63;;;;;;;1.95;100.00;98884.81;4856637;29;20230;-82
2023/01/26 20:06:02;;;;;;;46.47;24.50;;;;;;;1.36;100.00;98777.63;4877032;29;20305;-83
2023/01/26 20:08:32;;;;;;;43.20;23.30;;;;;;;2.37;100.00;98937.50;4889802;29;20230;-81
2023/01/26 20:11:08;;;;;;;45.10;26.33;;;;;;;2.22;100.00;98932.50;4888954;29;20832;-82
2023/01/26 20:14:07;;;;;;;40.13;22.93;;;;;;;2.11;100.00;98899.25;4887767;29;20230;-81
2023/01/26 20:16:39;;;;;;;36.57;19.60;;;;;;;2.07;100.00;98901.84;4886244;29;20313;-82
2023/01/26 20:19:08;;;;;;;35.13;20.60;;;;;;;2.23;100.00;98933.34;4891981;29;20312;-80
2023/01/26 20:22:36;;;;;;;34.00;18.87;;;;;;;1.96;100.00;98867.75;4884434;29;20728;-81
2023/01/26 20:25:24;;;;;;;30.87;17.57;;;;;;;1.23;100.00;98737.66;4888981;29;20692;-83
2023/01/26 20:28:05;;;;;;;24.10;15.60;;;;;;;2.01;100.00;98850.69;4887266;29;20229;-83
2023/01/26 20:31:06;;;;;;;26.23;15.97;;;;;;;2.41;100.00;98900.78;4884377;29;20222;-84
2023/01/26 20:33:46;;;;;;;21.17;14.13;;;;;;;2.23;100.00;98877.88;4890125;29;20221;-83
2023/01/26 20:36:17;;;;;;;23.10;15.07;;;;;;;2.33;100.00;98888.91;4889996;29;20228;-82
2023/01/26 20:39:23;;;;;;;21.43;14.77;;;;;;;2.19;100.00;98860.81;4891904;29;20265;-81
2023/01/26 20:42:22;;;;;;;21.40;13.50;;;;;;;2.25;100.00;98881.28;4900061;29;20697;-84
2023/01/26 20:45:06;;;;;;;25.00;14.80;;;;;;;2.21;100.00;98866.78;4883581;29;20230;-81
2023/01/26 20:47:51;;;;;;;24.73;14.50;;;;;;;2.13;100.00;98838.69;4891032;29;20263;-82
2023/01/26 20:51:34;;;;;;;21.10;13.23;;;;;;;2.16;100.00;98856.56;4885173;29;20800;-82
2023/01/26 20:54:07;;;;;;;18.67;13.37;;;;;;;2.25;100.00;98849.69;4880727;29;20241;-81
2023/01/26 20:56:51;;;;;;;19.77;13.07;;;;;;;2.08;100.00;98801.16;4887020;29;20627;-82